CheckWX is a tool to help pilots better visualize weather data.  It is not intended as a substitute for an official pre-flight weather briefing.

20:33:40 UTC

RKSO TAF
Osan Air Base Airport
South Korea
TAF RKSO 221900Z 2219/2401 30009KT 9999 FEW200 QNH3010INS BECMG 2301/2303 28015G20KT 8000 -SHRA BKN030 610309 QNH3002INS BECMG 2311/2312 31009KT 8000 BR SKC QNH3005INS TX09/2306Z TN01/2222Z

Mar-22@
19:00 UTC

Mar-22 @ 19:00 UTC

Mar-23@
01:00 UTC

Mar-23 @ 01:00 UTC

TAF RKSO 221900Z 2219/2401 30009KT 9999 FEW200 QNH3010INS
Wind
  • 300° at 9 KTS
Cloud Levels
  • Few at 20,000' AGL

Mar-23@
01:00 UTC

Mar-23 @ 01:00 UTC

Mar-23@
11:00 UTC

Mar-23 @ 11:00 UTC

BECMG 2301/2303 28015G20KT 8000 -SHRA BKN030 610309 QNH3002INS

Becoming

Becoming Conditions expected by Sat, Mar 23, 2019 @ 03:00 UTC

Wind
  • 280° at 15 KTS
  • {Gusting to 20 KTS
Conditions
Light Rain
Cloud Levels
  • Broken at 3,000' AGL
Icing
Light icing expected at 3,000' AGL extending to 12,000' AGL

Mar-23@
11:00 UTC

Mar-23 @ 11:00 UTC

Mar-24@
01:00 UTC

Mar-24 @ 01:00 UTC

BECMG 2311/2312 31009KT 8000 BR SKC QNH3005INS TX09/2306Z TN01/2222Z

Becoming

Becoming Conditions expected by Sat, Mar 23, 2019 @ 12:00 UTC

Wind
  • 310° at 9 KTS
Conditions
Mist
Cloud Levels
  • Clear skies